sensor_id;sensor_type;location;lat;lon;timestamp;pressure;altitude;pressure_sealevel;temperature;humidity
31331;BME280;34067;39.548;-76.088;2024-03-08T00:00:42;101640.99;;;11.19;68.95
31331;BME280;34067;39.548;-76.088;2024-03-08T00:03:10;101644.11;;;10.01;66.36
31331;BME280;34067;39.548;-76.088;2024-03-08T00:05:38;101648.66;;;11.16;68.96
31331;BME280;34067;39.548;-76.088;2024-03-08T00:08:07;101657.84;;;10.23;69.39
31331;BME280;34067;39.548;-76.088;2024-03-08T00:10:34;101665.04;;;10.27;69.91
31331;BME280;34067;39.548;-76.088;2024-03-08T00:13:03;101665.49;;;11.08;68.19
31331;BME280;34067;39.548;-76.088;2024-03-08T00:15:31;101675.20;;;10.50;68.25
31331;BME280;34067;39.548;-76.088;2024-03-08T00:17:59;101687.76;;;11.11;68.97
31331;BME280;34067;39.548;-76.088;2024-03-08T00:20:27;101693.78;;;11.22;71.94
31331;BME280;34067;39.548;-76.088;2024-03-08T00:22:55;101698.05;;;10.89;67.84
31331;BME280;34067;39.548;-76.088;2024-03-08T00:25:23;101697.60;;;10.97;70.07
31331;BME280;34067;39.548;-76.088;2024-03-08T00:27:51;101696.49;;;10.94;69.88
31331;BME280;34067;39.548;-76.088;2024-03-08T00:30:19;101692.21;;;11.10;69.11
31331;BME280;34067;39.548;-76.088;2024-03-08T00:32:47;101693.80;;;9.90;71.57
31331;BME280;34067;39.548;-76.088;2024-03-08T00:35:15;101692.02;;;10.35;71.09
31331;BME280;34067;39.548;-76.088;2024-03-08T00:37:43;101697.41;;;10.20;72.96
31331;BME280;34067;39.548;-76.088;2024-03-08T00:40:12;101691.11;;;9.94;72.49
31331;BME280;34067;39.548;-76.088;2024-03-08T00:42:40;101690.52;;;10.02;72.88
31331;BME280;34067;39.548;-76.088;2024-03-08T00:45:09;101693.58;;;10.94;73.23
31331;BME280;34067;39.548;-76.088;2024-03-08T00:47:37;101692.42;;;10.12;75.13
31331;BME280;34067;39.548;-76.088;2024-03-08T00:50:06;101705.04;;;10.39;74.36
31331;BME280;34067;39.548;-76.088;2024-03-08T00:52:34;101704.93;;;10.78;70.93
31331;BME280;34067;39.548;-76.088;2024-03-08T00:55:02;101704.86;;;9.87;68.54
31331;BME280;34067;39.548;-76.088;2024-03-08T00:57:30;101704.97;;;10.30;67.54
31331;BME280;34067;39.548;-76.088;2024-03-08T00:59:58;101708.54;;;9.52;68.13
31331;BME280;34067;39.548;-76.088;2024-03-08T01:02:26;101707.32;;;9.87;67.92
31331;BME280;34067;39.548;-76.088;2024-03-08T01:04:54;101712.14;;;10.59;66.93
31331;BME280;34067;39.548;-76.088;2024-03-08T01:07:22;101720.97;;;10.42;66.79
31331;BME280;34067;39.548;-76.088;2024-03-08T01:09:50;101720.39;;;10.50;67.14
31331;BME280;34067;39.548;-76.088;2024-03-08T01:12:18;101722.31;;;10.95;65.59
31331;BME280;34067;39.548;-76.088;2024-03-08T01:14:46;101726.98;;;10.18;69.17
31331;BME280;34067;39.548;-76.088;2024-03-08T01:17:14;101729.63;;;9.57;68.26
31331;BME280;34067;39.548;-76.088;2024-03-08T01:19:42;101741.84;;;10.87;71.30
31331;BME280;34067;39.548;-76.088;2024-03-08T01:22:10;101748.57;;;10.01;66.37
31331;BME280;34067;39.548;-76.088;2024-03-08T01:24:38;101751.53;;;10.20;68.71
31331;BME280;34067;39.548;-76.088;2024-03-08T01:27:06;101761.98;;;10.53;70.75
31331;BME280;34067;39.548;-76.088;2024-03-08T01:29:34;101759.34;;;9.98;70.93
31331;BME280;34067;39.548;-76.088;2024-03-08T01:32:03;101763.03;;;10.06;68.60
31331;BME280;34067;39.548;-76.088;2024-03-08T01:34:31;101762.45;;;10.08;72.47
31331;BME280;34067;39.548;-76.088;2024-03-08T01:36:59;101762.87;;;9.24;69.52
31331;BME280;34067;39.548;-76.088;2024-03-08T01:39:27;101766.87;;;9.15;69.78
31331;BME280;34067;39.548;-76.088;2024-03-08T01:41:55;101765.04;;;9.73;67.64
31331;BME280;34067;39.548;-76.088;2024-03-08T01:44:23;101780.37;;;9.72;69.44
31331;BME280;34067;39.548;-76.088;2024-03-08T01:46:52;101773.54;;;9.12;71.53
31331;BME280;34067;39.548;-76.088;2024-03-08T01:49:22;101780.03;;;9.44;70.96
31331;BME280;34067;39.548;-76.088;2024-03-08T01:51:50;101776.63;;;9.17;69.93
31331;BME280;34067;39.548;-76.088;2024-03-08T01:54:19;101780.78;;;9.37;71.70
31331;BME280;34067;39.548;-76.088;2024-03-08T01:56:48;101786.71;;;9.04;68.75
31331;BME280;34067;39.548;-76.088;2024-03-08T01:59:16;101801.25;;;8.88;68.57
31331;BME280;34067;39.548;-76.088;2024-03-08T02:01:44;101801.83;;;8.03;69.17
31331;BME280;34067;39.548;-76.088;2024-03-08T02:04:13;101806.22;;;8.67;69.95
31331;BME280;34067;39.548;-76.088;2024-03-08T02:06:41;101816.41;;;9.03;71.82
31331;BME280;34067;39.548;-76.088;2024-03-08T02:09:09;101819.96;;;9.35;70.36
31331;BME280;34067;39.548;-76.088;2024-03-08T02:11:37;101817.16;;;8.56;68.07
31331;BME280;34067;39.548;-76.088;2024-03-08T02:14:05;101819.45;;;8.45;69.31
31331;BME280;34067;39.548;-76.088;2024-03-08T02:16:33;101825.15;;;8.73;68.37
31331;BME280;34067;39.548;-76.088;2024-03-08T02:19:01;101831.25;;;9.34;68.19
31331;BME280;34067;39.548;-76.088;2024-03-08T02:21:30;101829.13;;;9.00;69.49
31331;BME280;34067;39.548;-76.088;2024-03-08T02:23:58;101837.36;;;8.80;69.95
31331;BME280;34067;39.548;-76.088;2024-03-08T02:26:26;101834.76;;;9.13;68.46
31331;BME280;34067;39.548;-76.088;2024-03-08T02:28:55;101836.28;;;8.35;68.72
31331;BME280;34067;39.548;-76.088;2024-03-08T02:31:22;101843.77;;;8.77;70.93
31331;BME280;34067;39.548;-76.088;2024-03-08T02:33:50;101845.72;;;8.99;71.06
31331;BME280;34067;39.548;-76.088;2024-03-08T02:36:18;101846.89;;;8.79;69.29
31331;BME280;34067;39.548;-76.088;2024-03-08T02:38:47;101856.57;;;8.99;68.87
31331;BME280;34067;39.548;-76.088;2024-03-08T02:41:15;101852.17;;;8.77;70.69
31331;BME280;34067;39.548;-76.088;2024-03-08T02:43:43;101864.70;;;8.37;68.98
31331;BME280;34067;39.548;-76.088;2024-03-08T02:46:11;101874.69;;;8.79;68.90
31331;BME280;34067;39.548;-76.088;2024-03-08T02:48:39;101886.30;;;8.41;69.44
31331;BME280;34067;39.548;-76.088;2024-03-08T02:51:07;101889.35;;;7.92;69.41
31331;BME280;34067;39.548;-76.088;2024-03-08T02:53:35;101880.06;;;9.32;68.72
31331;BME280;34067;39.548;-76.088;2024-03-08T02:56:03;101886.49;;;9.21;67.63
31331;BME280;34067;39.548;-76.088;2024-03-08T02:58:31;101893.59;;;8.67;66.58
31331;BME280;34067;39.548;-76.088;2024-03-08T03:00:59;101902.47;;;9.31;67.24
31331;BME280;34067;39.548;-76.088;2024-03-08T03:03:27;101912.04;;;9.27;66.55
31331;BME280;34067;39.548;-76.088;2024-03-08T03:05:56;101912.97;;;8.89;66.43
31331;BME280;34067;39.548;-76.088;2024-03-08T03:08:24;101914.51;;;8.73;65.75
31331;BME280;34067;39.548;-76.088;2024-03-08T03:10:52;101916.42;;;10.10;66.69
31331;BME280;34067;39.548;-76.088;2024-03-08T03:13:20;101922.57;;;9.00;67.19
31331;BME280;34067;39.548;-76.088;2024-03-08T03:15:48;101928.78;;;8.52;66.69
31331;BME280;34067;39.548;-76.088;2024-03-08T03:18:16;101935.94;;;8.35;68.92
31331;BME280;34067;39.548;-76.088;2024-03-08T03:20:44;101941.54;;;8.76;66.66
31331;BME280;34067;39.548;-76.088;2024-03-08T03:23:12;101937.84;;;9.14;64.36
31331;BME280;34067;39.548;-76.088;2024-03-08T03:25:40;101934.28;;;9.27;65.82
31331;BME280;34067;39.548;-76.088;2024-03-08T03:28:08;101937.64;;;8.85;69.60
31331;BME280;34067;39.548;-76.088;2024-03-08T03:30:37;101943.93;;;9.06;71.33
31331;BME280;34067;39.548;-76.088;2024-03-08T03:33:05;101946.15;;;9.59;65.91
31331;BME280;34067;39.548;-76.088;2024-03-08T03:35:33;101955.17;;;9.51;69.65
31331;BME280;34067;39.548;-76.088;2024-03-08T03:38:01;101953.85;;;9.35;67.95
31331;BME280;34067;39.548;-76.088;2024-03-08T03:40:29;101957.87;;;8.67;67.31
31331;BME280;34067;39.548;-76.088;2024-03-08T03:42:57;101957.15;;;9.33;66.58
31331;BME280;34067;39.548;-76.088;2024-03-08T03:45:25;101958.81;;;8.83;63.91
31331;BME280;34067;39.548;-76.088;2024-03-08T03:47:53;101955.84;;;8.87;64.91
31331;BME280;34067;39.548;-76.088;2024-03-08T03:50:22;101961.71;;;8.70;65.43
31331;BME280;34067;39.548;-76.088;2024-03-08T03:52:50;101960.48;;;8.73;65.27
31331;BME280;34067;39.548;-76.088;2024-03-08T03:55:17;101952.06;;;9.87;62.58
31331;BME280;34067;39.548;-76.088;2024-03-08T03:57:46;101948.61;;;9.15;63.02
31331;BME280;34067;39.548;-76.088;2024-03-08T04:00:14;101949.59;;;9.31;61.12
31331;BME280;34067;39.548;-76.088;2024-03-08T04:02:42;101956.43;;;9.25;65.06
31331;BME280;34067;39.548;-76.088;2024-03-08T04:05:10;101959.97;;;8.90;64.63
31331;BME280;34067;39.548;-76.088;2024-03-08T04:07:38;101959.33;;;9.27;68.94
31331;BME280;34067;39.548;-76.088;2024-03-08T04:10:08;101960.78;;;9.33;64.35
31331;BME280;34067;39.548;-76.088;2024-03-08T04:12:36;101959.14;;;7.71;67.52
31331;BME280;34067;39.548;-76.088;2024-03-08T04:15:05;101957.83;;;8.60;67.75
31331;BME280;34067;39.548;-76.088;2024-03-08T04:17:33;101964.21;;;8.15;72.45
31331;BME280;34067;39.548;-76.088;2024-03-08T04:20:01;101964.60;;;8.20;73.45
31331;BME280;34067;39.548;-76.088;2024-03-08T04:22:29;101968.51;;;7.16;75.97
31331;BME280;34067;39.548;-76.088;2024-03-08T04:24:57;101968.89;;;8.03;79.38
31331;BME280;34067;39.548;-76.088;2024-03-08T04:27:26;101971.24;;;7.46;74.39
31331;BME280;34067;39.548;-76.088;2024-03-08T04:29:54;101976.13;;;7.97;74.22
31331;BME280;34067;39.548;-76.088;2024-03-08T04:32:22;101984.11;;;8.39;69.36
31331;BME280;34067;39.548;-76.088;2024-03-08T04:34:50;101986.49;;;7.42;67.84
31331;BME280;34067;39.548;-76.088;2024-03-08T04:37:18;101988.10;;;8.28;67.91
31331;BME280;34067;39.548;-76.088;2024-03-08T04:39:46;101989.08;;;8.70;67.63
31331;BME280;34067;39.548;-76.088;2024-03-08T04:42:15;101989.41;;;8.86;69.12
31331;BME280;34067;39.548;-76.088;2024-03-08T04:44:43;101986.54;;;8.69;66.93
31331;BME280;34067;39.548;-76.088;2024-03-08T04:47:12;101984.33;;;8.52;65.04
31331;BME280;34067;39.548;-76.088;2024-03-08T04:49:40;101983.32;;;9.05;62.54
31331;BME280;34067;39.548;-76.088;2024-03-08T04:52:08;101985.50;;;9.53;64.16
31331;BME280;34067;39.548;-76.088;2024-03-08T04:54:36;101991.27;;;9.05;66.55
31331;BME280;34067;39.548;-76.088;2024-03-08T04:57:04;101993.92;;;8.59;65.03
31331;BME280;34067;39.548;-76.088;2024-03-08T04:59:32;101997.58;;;7.98;70.17
31331;BME280;34067;39.548;-76.088;2024-03-08T05:02:00;101996.30;;;6.87;73.53
31331;BME280;34067;39.548;-76.088;2024-03-08T05:04:29;101998.22;;;6.89;74.04
31331;BME280;34067;39.548;-76.088;2024-03-08T05:06:57;102000.61;;;6.64;73.21
31331;BME280;34067;39.548;-76.088;2024-03-08T05:09:25;102000.75;;;7.03;74.30
31331;BME280;34067;39.548;-76.088;2024-03-08T05:11:53;102005.96;;;6.85;74.74
31331;BME280;34067;39.548;-76.088;2024-03-08T05:14:21;102013.91;;;7.55;72.99
31331;BME280;34067;39.548;-76.088;2024-03-08T05:16:49;102019.74;;;7.52;71.09
31331;BME280;34067;39.548;-76.088;2024-03-08T05:19:19;102023.95;;;6.74;73.99
31331;BME280;34067;39.548;-76.088;2024-03-08T05:21:47;102028.99;;;7.22;71.28
31331;BME280;34067;39.548;-76.088;2024-03-08T05:24:16;102031.62;;;7.18;71.76
31331;BME280;34067;39.548;-76.088;2024-03-08T05:26:44;102035.62;;;6.64;72.09
31331;BME280;34067;39.548;-76.088;2024-03-08T05:29:13;102036.31;;;7.79;69.82
31331;BME280;34067;39.548;-76.088;2024-03-08T05:31:47;102037.24;;;7.81;67.77
31331;BME280;34067;39.548;-76.088;2024-03-08T05:34:15;102045.62;;;7.98;68.72
31331;BME280;34067;39.548;-76.088;2024-03-08T05:36:43;102053.82;;;7.50;67.56
31331;BME280;34067;39.548;-76.088;2024-03-08T05:39:11;102055.56;;;7.79;66.25
31331;BME280;34067;39.548;-76.088;2024-03-08T05:41:39;102063.05;;;8.33;63.95
31331;BME280;34067;39.548;-76.088;2024-03-08T05:44:07;102053.96;;;8.49;64.92
31331;BME280;34067;39.548;-76.088;2024-03-08T05:46:35;102056.28;;;7.27;66.75
31331;BME280;34067;39.548;-76.088;2024-03-08T05:49:04;102054.46;;;6.56;70.05
31331;BME280;34067;39.548;-76.088;2024-03-08T05:51:32;102059.80;;;6.87;71.28
31331;BME280;34067;39.548;-76.088;2024-03-08T05:54:00;102059.81;;;6.99;73.17
31331;BME280;34067;39.548;-76.088;2024-03-08T05:56:28;102063.52;;;6.71;75.80
31331;BME280;34067;39.548;-76.088;2024-03-08T05:58:57;102062.92;;;5.81;79.21
31331;BME280;34067;39.548;-76.088;2024-03-08T06:03:09;102067.14;;;5.66;81.70
31331;BME280;34067;39.548;-76.088;2024-03-08T06:05:37;102068.31;;;5.93;85.96
31331;BME280;34067;39.548;-76.088;2024-03-08T06:08:05;102074.43;;;5.69;84.11
31331;BME280;34067;39.548;-76.088;2024-03-08T06:10:33;102070.31;;;5.79;87.94
31331;BME280;34067;39.548;-76.088;2024-03-08T06:13:01;102070.16;;;5.39;89.99
31331;BME280;34067;39.548;-76.088;2024-03-08T06:15:29;102080.10;;;5.06;87.98
31331;BME280;34067;39.548;-76.088;2024-03-08T06:17:58;102075.33;;;5.28;89.34
31331;BME280;34067;39.548;-76.088;2024-03-08T06:20:26;102072.22;;;5.37;90.57
31331;BME280;34067;39.548;-76.088;2024-03-08T06:22:54;102068.15;;;6.00;87.81
31331;BME280;34067;39.548;-76.088;2024-03-08T06:25:22;102068.82;;;5.52;87.92
31331;BME280;34067;39.548;-76.088;2024-03-08T06:27:50;102078.51;;;5.21;89.22
31331;BME280;34067;39.548;-76.088;2024-03-08T06:30:19;102076.74;;;5.61;91.96
31331;BME280;34067;39.548;-76.088;2024-03-08T06:32:47;102078.58;;;5.57;91.92
31331;BME280;34067;39.548;-76.088;2024-03-08T06:35:15;102092.70;;;5.28;91.70
31331;BME280;34067;39.548;-76.088;2024-03-08T06:37:43;102099.29;;;4.88;92.15
31331;BME280;34067;39.548;-76.088;2024-03-08T06:40:12;102103.20;;;4.95;92.11
31331;BME280;34067;39.548;-76.088;2024-03-08T06:42:40;102109.96;;;4.36;92.69
31331;BME280;34067;39.548;-76.088;2024-03-08T06:45:09;102108.47;;;5.08;91.80
31331;BME280;34067;39.548;-76.088;2024-03-08T06:47:37;102114.65;;;5.63;90.04
31331;BME280;34067;39.548;-76.088;2024-03-08T06:50:05;102117.35;;;4.99;89.77
31331;BME280;34067;39.548;-76.088;2024-03-08T06:52:33;102115.91;;;5.34;87.01
31331;BME280;34067;39.548;-76.088;2024-03-08T06:55:01;102125.47;;;5.12;86.55
31331;BME280;34067;39.548;-76.088;2024-03-08T06:57:29;102131.77;;;5.25;85.10
31331;BME280;34067;39.548;-76.088;2024-03-08T06:59:57;102131.17;;;5.27;79.16
31331;BME280;34067;39.548;-76.088;2024-03-08T07:02:25;102139.85;;;5.71;80.85
31331;BME280;34067;39.548;-76.088;2024-03-08T07:04:53;102146.12;;;5.65;83.71
31331;BME280;34067;39.548;-76.088;2024-03-08T07:07:22;102155.34;;;4.85;85.10
31331;BME280;34067;39.548;-76.088;2024-03-08T07:09:49;102161.72;;;5.84;84.18
31331;BME280;34067;39.548;-76.088;2024-03-08T07:12:18;102156.47;;;5.76;86.28
31331;BME280;34067;39.548;-76.088;2024-03-08T07:14:46;102164.28;;;5.99;86.26
31331;BME280;34067;39.548;-76.088;2024-03-08T07:17:14;102165.70;;;4.81;88.78
31331;BME280;34067;39.548;-76.088;2024-03-08T07:19:42;102169.16;;;4.37;93.92
31331;BME280;34067;39.548;-76.088;2024-03-08T07:22:11;102171.97;;;4.71;93.05
31331;BME280;34067;39.548;-76.088;2024-03-08T07:24:40;102181.88;;;5.02;91.83
31331;BME280;34067;39.548;-76.088;2024-03-08T07:27:08;102176.82;;;4.60;94.37
31331;BME280;34067;39.548;-76.088;2024-03-08T07:29:36;102182.49;;;5.12;93.65
31331;BME280;34067;39.548;-76.088;2024-03-08T07:32:04;102185.59;;;5.12;93.07
31331;BME280;34067;39.548;-76.088;2024-03-08T07:34:32;102187.43;;;5.42;92.56
31331;BME280;34067;39.548;-76.088;2024-03-08T07:37:01;102185.03;;;5.31;92.08
31331;BME280;34067;39.548;-76.088;2024-03-08T07:39:29;102184.04;;;5.08;93.09
31331;BME280;34067;39.548;-76.088;2024-03-08T07:41:57;102178.59;;;4.43;95.40
31331;BME280;34067;39.548;-76.088;2024-03-08T07:44:25;102177.46;;;4.47;96.88
31331;BME280;34067;39.548;-76.088;2024-03-08T07:46:54;102172.83;;;4.73;96.76
31331;BME280;34067;39.548;-76.088;2024-03-08T07:49:22;102172.09;;;4.64;99.24
31331;BME280;34067;39.548;-76.088;2024-03-08T07:51:50;102172.02;;;5.35;98.57
31331;BME280;34067;39.548;-76.088;2024-03-08T07:54:18;102178.18;;;4.58;98.19
31331;BME280;34067;39.548;-76.088;2024-03-08T07:56:46;102175.63;;;4.89;94.98
31331;BME280;34067;39.548;-76.088;2024-03-08T07:59:14;102176.80;;;4.86;97.04
31331;BME280;34067;39.548;-76.088;2024-03-08T08:01:42;102172.83;;;4.55;96.58
31331;BME280;34067;39.548;-76.088;2024-03-08T08:04:11;102170.72;;;4.55;100.00
31331;BME280;34067;39.548;-76.088;2024-03-08T08:06:39;102171.18;;;4.20;98.71
31331;BME280;34067;39.548;-76.088;2024-03-08T08:09:07;102171.60;;;4.27;98.64
31331;BME280;34067;39.548;-76.088;2024-03-08T08:11:35;102166.81;;;4.89;96.15
31331;BME280;34067;39.548;-76.088;2024-03-08T08:14:03;102175.89;;;4.44;96.54
31331;BME280;34067;39.548;-76.088;2024-03-08T08:16:31;102169.71;;;4.17;100.00
31331;BME280;34067;39.548;-76.088;2024-03-08T08:18:59;102170.34;;;4.84;97.03
31331;BME280;34067;39.548;-76.088;2024-03-08T08:21:27;102168.75;;;3.65;96.32
31331;BME280;34067;39.548;-76.088;2024-03-08T08:23:55;102167.37;;;3.90;94.64
31331;BME280;34067;39.548;-76.088;2024-03-08T08:26:23;102171.26;;;3.34;95.72
31331;BME280;34067;39.548;-76.088;2024-03-08T08:28:52;102169.93;;;4.91;92.56
31331;BME280;34067;39.548;-76.088;2024-03-08T08:31:20;102167.75;;;3.74;95.91
31331;BME280;34067;39.548;-76.088;2024-03-08T08:33:48;102169.99;;;3.44;94.47
31331;BME280;34067;39.548;-76.088;2024-03-08T08:36:16;102167.37;;;4.41;93.82
31331;BME280;34067;39.548;-76.088;2024-03-08T08:38:44;102165.45;;;3.69;94.39
31331;BME280;34067;39.548;-76.088;2024-03-08T08:41:13;102163.83;;;3.61;93.66
31331;BME280;34067;39.548;-76.088;2024-03-08T08:43:41;102169.41;;;4.50;90.63
31331;BME280;34067;39.548;-76.088;2024-03-08T08:46:09;102166.13;;;4.65;90.92
31331;BME280;34067;39.548;-76.088;2024-03-08T08:48:36;102166.27;;;4.85;89.20
31331;BME280;34067;39.548;-76.088;2024-03-08T08:51:05;102167.04;;;4.33;90.83
31331;BME280;34067;39.548;-76.088;2024-03-08T08:53:32;102167.79;;;4.71;90.09
31331;BME280;34067;39.548;-76.088;2024-03-08T08:56:01;102174.50;;;5.18;91.10
31331;BME280;34067;39.548;-76.088;2024-03-08T08:58:29;102180.51;;;4.80;88.84
31331;BME280;34067;39.548;-76.088;2024-03-08T09:00:57;102184.37;;;3.92;89.16
31331;BME280;34067;39.548;-76.088;2024-03-08T09:03:25;102192.12;;;4.00;89.71
31331;BME280;34067;39.548;-76.088;2024-03-08T09:05:53;102195.56;;;4.32;89.10
31331;BME280;34067;39.548;-76.088;2024-03-08T09:08:21;102201.28;;;3.57;90.90
31331;BME280;34067;39.548;-76.088;2024-03-08T09:10:49;102199.68;;;4.26;89.50
31331;BME280;34067;39.548;-76.088;2024-03-08T09:13:17;102199.55;;;3.46;90.42
31331;BME280;34067;39.548;-76.088;2024-03-08T09:15:45;102200.59;;;4.14;92.34
31331;BME280;34067;39.548;-76.088;2024-03-08T09:18:13;102201.02;;;4.51;93.43
31331;BME280;34067;39.548;-76.088;2024-03-08T09:20:41;102202.08;;;4.50;93.10
31331;BME280;34067;39.548;-76.088;2024-03-08T09:23:10;102208.66;;;4.30;89.24
31331;BME280;34067;39.548;-76.088;2024-03-08T09:25:38;102208.68;;;4.01;87.84
31331;BME280;34067;39.548;-76.088;2024-03-08T09:28:06;102217.59;;;4.11;88.13
31331;BME280;34067;39.548;-76.088;2024-03-08T09:30:34;102228.65;;;4.50;86.98
31331;BME280;34067;39.548;-76.088;2024-03-08T09:33:02;102231.97;;;4.24;86.10
31331;BME280;34067;39.548;-76.088;2024-03-08T09:35:31;102231.11;;;4.89;85.83
31331;BME280;34067;39.548;-76.088;2024-03-08T09:37:59;102234.30;;;4.30;85.80
31331;BME280;34067;39.548;-76.088;2024-03-08T09:40:27;102238.29;;;4.95;85.24
31331;BME280;34067;39.548;-76.088;2024-03-08T09:42:55;102251.76;;;5.10;85.23
31331;BME280;34067;39.548;-76.088;2024-03-08T09:45:23;102257.36;;;5.04;84.66
31331;BME280;34067;39.548;-76.088;2024-03-08T09:47:52;102261.20;;;5.06;83.95
31331;BME280;34067;39.548;-76.088;2024-03-08T09:50:20;102263.57;;;5.32;83.22
31331;BME280;34067;39.548;-76.088;2024-03-08T09:52:49;102270.73;;;4.45;83.02
31331;BME280;34067;39.548;-76.088;2024-03-08T09:55:17;102272.58;;;4.96;83.45
31331;BME280;34067;39.548;-76.088;2024-03-08T09:57:47;102275.94;;;5.00;84.58
31331;BME280;34067;39.548;-76.088;2024-03-08T10:00:16;102286.29;;;4.60;84.83
31331;BME280;34067;39.548;-76.088;2024-03-08T10:02:45;102287.77;;;4.68;84.22
31331;BME280;34067;39.548;-76.088;2024-03-08T10:05:13;102284.13;;;4.78;83.70
31331;BME280;34067;39.548;-76.088;2024-03-08T10:07:41;102284.81;;;5.25;84.83
31331;BME280;34067;39.548;-76.088;2024-03-08T10:10:08;102290.69;;;4.49;87.90
31331;BME280;34067;39.548;-76.088;2024-03-08T10:12:36;102294.31;;;3.79;89.54
31331;BME280;34067;39.548;-76.088;2024-03-08T10:15:07;102300.01;;;3.88;88.67
31331;BME280;34067;39.548;-76.088;2024-03-08T10:17:35;102298.43;;;4.45;88.76
31331;BME280;34067;39.548;-76.088;2024-03-08T10:20:03;102293.72;;;3.84;90.40
31331;BME280;34067;39.548;-76.088;2024-03-08T10:22:31;102293.99;;;3.98;91.06
31331;BME280;34067;39.548;-76.088;2024-03-08T10:24:59;102298.23;;;4.17;93.84
31331;BME280;34067;39.548;-76.088;2024-03-08T10:27:28;102297.33;;;4.03;89.64
31331;BME280;34067;39.548;-76.088;2024-03-08T10:29:56;102307.58;;;3.93;91.42
31331;BME280;34067;39.548;-76.088;2024-03-08T10:32:24;102310.93;;;4.23;90.21
31331;BME280;34067;39.548;-76.088;2024-03-08T10:34:52;102316.81;;;4.80;88.23
31331;BME280;34067;39.548;-76.088;2024-03-08T10:37:22;102315.43;;;4.31;88.24
31331;BME280;34067;39.548;-76.088;2024-03-08T10:39:56;102314.38;;;5.52;84.30
31331;BME280;34067;39.548;-76.088;2024-03-08T10:42:30;102318.92;;;5.05;82.71
31331;BME280;34067;39.548;-76.088;2024-03-08T10:45:05;102328.13;;;4.48;83.99
31331;BME280;34067;39.548;-76.088;2024-03-08T10:47:38;102329.61;;;3.63;84.68
31331;BME280;34067;39.548;-76.088;2024-03-08T10:50:15;102334.30;;;4.52;83.23
31331;BME280;34067;39.548;-76.088;2024-03-08T10:52:45;102338.04;;;4.72;85.38
31331;BME280;34067;39.548;-76.088;2024-03-08T10:55:16;102338.68;;;4.99;83.98
31331;BME280;34067;39.548;-76.088;2024-03-08T10:57:44;102342.23;;;4.73;79.13
31331;BME280;34067;39.548;-76.088;2024-03-08T11:00:14;102344.72;;;4.96;77.23
31331;BME280;34067;39.548;-76.088;2024-03-08T11:02:44;102352.89;;;5.36;78.11
31331;BME280;34067;39.548;-76.088;2024-03-08T11:05:31;102359.28;;;5.40;77.09
31331;BME280;34067;39.548;-76.088;2024-03-08T11:07:59;102360.90;;;5.75;77.57
31331;BME280;34067;39.548;-76.088;2024-03-08T11:10:27;102356.55;;;5.37;78.08
31331;BME280;34067;39.548;-76.088;2024-03-08T11:12:55;102356.80;;;5.50;80.13
31331;BME280;34067;39.548;-76.088;2024-03-08T11:15:25;102362.07;;;4.63;79.19
31331;BME280;34067;39.548;-76.088;2024-03-08T11:17:53;102364.94;;;5.55;77.96
31331;BME280;34067;39.548;-76.088;2024-03-08T11:20:23;102370.46;;;5.38;77.55
31331;BME280;34067;39.548;-76.088;2024-03-08T11:22:53;102373.06;;;5.79;77.36
31331;BME280;34067;39.548;-76.088;2024-03-08T11:25:38;102375.04;;;6.26;75.07
31331;BME280;34067;39.548;-76.088;2024-03-08T11:28:10;102373.84;;;6.06;74.25
31331;BME280;34067;39.548;-76.088;2024-03-08T11:30:38;102376.63;;;5.75;75.01
31331;BME280;34067;39.548;-76.088;2024-03-08T11:33:12;102385.30;;;6.32;75.37
31331;BME280;34067;39.548;-76.088;2024-03-08T11:35:41;102388.77;;;5.62;77.11
31331;BME280;34067;39.548;-76.088;2024-03-08T11:38:09;102396.13;;;5.29;77.19
31331;BME280;34067;39.548;-76.088;2024-03-08T11:40:38;102388.19;;;5.26;78.72
31331;BME280;34067;39.548;-76.088;2024-03-08T11:43:07;102388.93;;;5.90;79.48
31331;BME280;34067;39.548;-76.088;2024-03-08T11:45:35;102394.57;;;5.79;79.53
31331;BME280;34067;39.548;-76.088;2024-03-08T11:48:04;102403.14;;;5.86;79.23
31331;BME280;34067;39.548;-76.088;2024-03-08T11:50:31;102411.51;;;5.96;79.18
31331;BME280;34067;39.548;-76.088;2024-03-08T11:53:02;102416.78;;;6.15;78.23
31331;BME280;34067;39.548;-76.088;2024-03-08T11:55:30;102412.16;;;5.74;79.80
31331;BME280;34067;39.548;-76.088;2024-03-08T11:58:02;102411.66;;;5.60;80.94
31331;BME280;34067;39.548;-76.088;2024-03-08T12:00:30;102413.57;;;4.58;81.48
31331;BME280;34067;39.548;-76.088;2024-03-08T12:03:06;102416.83;;;5.65;84.62
31331;BME280;34067;39.548;-76.088;2024-03-08T12:05:35;102424.65;;;4.85;86.29
31331;BME280;34067;39.548;-76.088;2024-03-08T12:08:04;102430.05;;;4.28;86.34
31331;BME280;34067;39.548;-76.088;2024-03-08T12:10:32;102434.46;;;5.19;85.93
31331;BME280;34067;39.548;-76.088;2024-03-08T12:13:00;102439.11;;;5.14;85.15
31331;BME280;34067;39.548;-76.088;2024-03-08T12:15:29;102439.70;;;4.65;84.56
31331;BME280;34067;39.548;-76.088;2024-03-08T12:17:57;102438.35;;;4.78;85.29
31331;BME280;34067;39.548;-76.088;2024-03-08T12:20:27;102437.54;;;5.19;82.77
31331;BME280;34067;39.548;-76.088;2024-03-08T12:22:56;102437.54;;;5.27;84.40
31331;BME280;34067;39.548;-76.088;2024-03-08T12:25:27;102434.27;;;5.32;80.91
31331;BME280;34067;39.548;-76.088;2024-03-08T12:27:55;102437.13;;;5.53;80.37
31331;BME280;34067;39.548;-76.088;2024-03-08T12:30:24;102443.37;;;5.18;76.88
31331;BME280;34067;39.548;-76.088;2024-03-08T12:32:55;102450.81;;;5.94;74.43
31331;BME280;34067;39.548;-76.088;2024-03-08T12:35:24;102447.04;;;6.10;74.55
31331;BME280;34067;39.548;-76.088;2024-03-08T12:37:53;102445.89;;;5.79;72.99
31331;BME280;34067;39.548;-76.088;2024-03-08T12:40:26;102446.95;;;5.39;71.11
31331;BME280;34067;39.548;-76.088;2024-03-08T12:42:55;102448.49;;;5.95;70.56
31331;BME280;34067;39.548;-76.088;2024-03-08T12:45:23;102447.37;;;6.39;69.57